sensor_id;sensor_type;location;lat;lon;timestamp;P1;durP1;ratioP1;P2;durP2;ratioP2
63316;SDS011;49822;41.468;13.560;2022-09-13T00:00:07;6.13;;;2.03;;
63316;SDS011;49822;41.468;13.560;2022-09-13T00:02:35;8.00;;;2.05;;
63316;SDS011;49822;41.468;13.560;2022-09-13T00:05:03;7.15;;;2.65;;
63316;SDS011;49822;41.468;13.560;2022-09-13T00:07:30;9.10;;;2.60;;
63316;SDS011;49822;41.468;13.560;2022-09-13T00:09:57;8.85;;;3.65;;
63316;SDS011;49822;41.468;13.560;2022-09-13T00:12:25;5.10;;;2.10;;
63316;SDS011;49822;41.468;13.560;2022-09-13T00:14:53;8.82;;;2.75;;
63316;SDS011;49822;41.468;13.560;2022-09-13T00:17:20;6.38;;;2.53;;
63316;SDS011;49822;41.468;13.560;2022-09-13T00:19:48;7.45;;;2.83;;
63316;SDS011;49822;41.468;13.560;2022-09-13T00:22:16;5.70;;;2.35;;
63316;SDS011;49822;41.468;13.560;2022-09-13T00:24:43;4.60;;;2.15;;
63316;SDS011;49822;41.468;13.560;2022-09-13T00:27:11;4.75;;;1.90;;
63316;SDS011;49822;41.468;13.560;2022-09-13T00:29:38;12.60;;;5.32;;
63316;SDS011;49822;41.468;13.560;2022-09-13T00:32:06;4.57;;;2.60;;
63316;SDS011;49822;41.468;13.560;2022-09-13T00:34:33;8.13;;;2.20;;
63316;SDS011;49822;41.468;13.560;2022-09-13T00:37:00;3.78;;;1.80;;
63316;SDS011;49822;41.468;13.560;2022-09-13T00:39:28;4.50;;;2.30;;
63316;SDS011;49822;41.468;13.560;2022-09-13T00:41:56;6.18;;;2.10;;
63316;SDS011;49822;41.468;13.560;2022-09-13T00:47:20;7.10;;;2.40;;
63316;SDS011;49822;41.468;13.560;2022-09-13T00:49:53;5.63;;;2.05;;
63316;SDS011;49822;41.468;13.560;2022-09-13T00:52:26;6.43;;;2.65;;
63316;SDS011;49822;41.468;13.560;2022-09-13T00:55:03;4.82;;;2.20;;
63316;SDS011;49822;41.468;13.560;2022-09-13T00:57:45;6.93;;;3.10;;
63316;SDS011;49822;41.468;13.560;2022-09-13T01:00:16;5.63;;;2.40;;
63316;SDS011;49822;41.468;13.560;2022-09-13T01:02:54;5.60;;;2.85;;
63316;SDS011;49822;41.468;13.560;2022-09-13T01:05:27;8.23;;;3.22;;
63316;SDS011;49822;41.468;13.560;2022-09-13T01:07:59;4.72;;;2.58;;
63316;SDS011;49822;41.468;13.560;2022-09-13T01:10:27;11.35;;;3.88;;
63316;SDS011;49822;41.468;13.560;2022-09-13T01:13:05;7.40;;;2.50;;
63316;SDS011;49822;41.468;13.560;2022-09-13T01:15:42;7.18;;;3.38;;
63316;SDS011;49822;41.468;13.560;2022-09-13T01:18:12;5.72;;;2.58;;
63316;SDS011;49822;41.468;13.560;2022-09-13T01:34:26;4.63;;;2.35;;
63316;SDS011;49822;41.468;13.560;2022-09-13T01:40:15;5.37;;;2.43;;
63316;SDS011;49822;41.468;13.560;2022-09-13T01:42:47;7.13;;;2.42;;
63316;SDS011;49822;41.468;13.560;2022-09-13T01:48:19;5.55;;;2.10;;
63316;SDS011;49822;41.468;13.560;2022-09-13T01:51:27;7.15;;;3.15;;
63316;SDS011;49822;41.468;13.560;2022-09-13T01:57:13;11.35;;;3.40;;
63316;SDS011;49822;41.468;13.560;2022-09-13T01:59:48;6.60;;;2.80;;
63316;SDS011;49822;41.468;13.560;2022-09-13T02:02:23;6.57;;;3.60;;
63316;SDS011;49822;41.468;13.560;2022-09-13T02:07:45;8.23;;;3.15;;
63316;SDS011;49822;41.468;13.560;2022-09-13T02:10:24;7.00;;;3.10;;
63316;SDS011;49822;41.468;13.560;2022-09-13T02:12:56;9.95;;;2.90;;
63316;SDS011;49822;41.468;13.560;2022-09-13T02:15:26;5.70;;;3.22;;
63316;SDS011;49822;41.468;13.560;2022-09-13T02:18:07;7.18;;;2.58;;
63316;SDS011;49822;41.468;13.560;2022-09-13T02:20:39;8.02;;;2.83;;
63316;SDS011;49822;41.468;13.560;2022-09-13T02:23:15;6.43;;;2.90;;
63316;SDS011;49822;41.468;13.560;2022-09-13T02:25:48;7.85;;;3.90;;
63316;SDS011;49822;41.468;13.560;2022-09-13T02:33:22;6.07;;;2.40;;
63316;SDS011;49822;41.468;13.560;2022-09-13T02:36:25;3.85;;;2.30;;
63316;SDS011;49822;41.468;13.560;2022-09-13T02:39:04;4.25;;;2.30;;
63316;SDS011;49822;41.468;13.560;2022-09-13T02:41:57;9.50;;;3.47;;
63316;SDS011;49822;41.468;13.560;2022-09-13T02:50:10;5.60;;;2.70;;
63316;SDS011;49822;41.468;13.560;2022-09-13T02:52:57;9.43;;;2.80;;
63316;SDS011;49822;41.468;13.560;2022-09-13T03:01:10;6.22;;;2.38;;
63316;SDS011;49822;41.468;13.560;2022-09-13T03:03:38;6.68;;;2.63;;
63316;SDS011;49822;41.468;13.560;2022-09-13T03:06:05;7.25;;;2.45;;
63316;SDS011;49822;41.468;13.560;2022-09-13T03:08:33;6.50;;;2.60;;
63316;SDS011;49822;41.468;13.560;2022-09-13T03:11:11;5.90;;;2.42;;
63316;SDS011;49822;41.468;13.560;2022-09-13T03:16:41;4.55;;;2.10;;
63316;SDS011;49822;41.468;13.560;2022-09-13T03:31:14;5.97;;;2.50;;
63316;SDS011;49822;41.468;13.560;2022-09-13T03:39:37;5.80;;;2.67;;
63316;SDS011;49822;41.468;13.560;2022-09-13T03:42:42;4.50;;;2.35;;
63316;SDS011;49822;41.468;13.560;2022-09-13T03:45:06;7.20;;;2.60;;
63316;SDS011;49822;41.468;13.560;2022-09-13T03:50:06;11.20;;;2.70;;
63316;SDS011;49822;41.468;13.560;2022-09-13T03:52:34;6.28;;;2.80;;
63316;SDS011;49822;41.468;13.560;2022-09-13T03:55:02;7.10;;;2.53;;
63316;SDS011;49822;41.468;13.560;2022-09-13T03:57:30;5.00;;;2.67;;
63316;SDS011;49822;41.468;13.560;2022-09-13T03:59:57;7.38;;;2.72;;
63316;SDS011;49822;41.468;13.560;2022-09-13T04:02:25;7.47;;;3.10;;
63316;SDS011;49822;41.468;13.560;2022-09-13T04:04:54;7.70;;;2.40;;
63316;SDS011;49822;41.468;13.560;2022-09-13T04:07:23;3.75;;;2.10;;
63316;SDS011;49822;41.468;13.560;2022-09-13T04:09:50;3.58;;;1.90;;
63316;SDS011;49822;41.468;13.560;2022-09-13T04:12:18;4.90;;;2.47;;
63316;SDS011;49822;41.468;13.560;2022-09-13T04:14:46;5.30;;;2.20;;
63316;SDS011;49822;41.468;13.560;2022-09-13T04:17:13;4.53;;;2.30;;
63316;SDS011;49822;41.468;13.560;2022-09-13T04:19:41;7.47;;;2.92;;
63316;SDS011;49822;41.468;13.560;2022-09-13T04:22:12;8.88;;;3.08;;
63316;SDS011;49822;41.468;13.560;2022-09-13T04:24:40;9.68;;;3.05;;
63316;SDS011;49822;41.468;13.560;2022-09-13T04:27:08;6.63;;;2.70;;
63316;SDS011;49822;41.468;13.560;2022-09-13T04:29:36;6.47;;;2.40;;
63316;SDS011;49822;41.468;13.560;2022-09-13T04:32:04;6.55;;;2.53;;
63316;SDS011;49822;41.468;13.560;2022-09-13T04:34:31;6.18;;;2.47;;
63316;SDS011;49822;41.468;13.560;2022-09-13T04:36:59;4.13;;;2.10;;
63316;SDS011;49822;41.468;13.560;2022-09-13T04:39:26;11.20;;;3.08;;
63316;SDS011;49822;41.468;13.560;2022-09-13T04:41:53;8.23;;;2.63;;
63316;SDS011;49822;41.468;13.560;2022-09-13T04:44:21;7.65;;;2.70;;
63316;SDS011;49822;41.468;13.560;2022-09-13T04:46:50;4.28;;;2.20;;
63316;SDS011;49822;41.468;13.560;2022-09-13T04:49:18;6.38;;;2.47;;
63316;SDS011;49822;41.468;13.560;2022-09-13T04:51:46;10.63;;;2.53;;
63316;SDS011;49822;41.468;13.560;2022-09-13T04:54:14;4.00;;;2.05;;
63316;SDS011;49822;41.468;13.560;2022-09-13T04:56:42;5.10;;;2.10;;
63316;SDS011;49822;41.468;13.560;2022-09-13T04:59:10;5.65;;;2.50;;
63316;SDS011;49822;41.468;13.560;2022-09-13T05:01:38;5.35;;;2.55;;
63316;SDS011;49822;41.468;13.560;2022-09-13T05:04:07;9.65;;;2.90;;
63316;SDS011;49822;41.468;13.560;2022-09-13T05:06:36;8.80;;;2.20;;
63316;SDS011;49822;41.468;13.560;2022-09-13T05:09:04;6.68;;;2.03;;
63316;SDS011;49822;41.468;13.560;2022-09-13T05:11:33;4.57;;;2.40;;
63316;SDS011;49822;41.468;13.560;2022-09-13T05:14:00;5.13;;;2.22;;
63316;SDS011;49822;41.468;13.560;2022-09-13T05:16:29;6.57;;;2.50;;
63316;SDS011;49822;41.468;13.560;2022-09-13T05:18:58;6.23;;;2.20;;
63316;SDS011;49822;41.468;13.560;2022-09-13T05:21:26;7.38;;;2.58;;
63316;SDS011;49822;41.468;13.560;2022-09-13T05:23:54;4.65;;;2.13;;
63316;SDS011;49822;41.468;13.560;2022-09-13T05:26:23;9.43;;;3.45;;
63316;SDS011;49822;41.468;13.560;2022-09-13T05:28:52;5.38;;;2.75;;
63316;SDS011;49822;41.468;13.560;2022-09-13T05:31:24;9.93;;;2.85;;
63316;SDS011;49822;41.468;13.560;2022-09-13T05:34:06;8.15;;;2.17;;
63316;SDS011;49822;41.468;13.560;2022-09-13T05:36:39;5.05;;;2.58;;
63316;SDS011;49822;41.468;13.560;2022-09-13T05:39:11;8.95;;;2.60;;
63316;SDS011;49822;41.468;13.560;2022-09-13T05:42:01;3.75;;;2.20;;
63316;SDS011;49822;41.468;13.560;2022-09-13T05:44:28;6.85;;;2.58;;
63316;SDS011;49822;41.468;13.560;2022-09-13T05:46:55;6.57;;;2.40;;
63316;SDS011;49822;41.468;13.560;2022-09-13T05:49:23;7.28;;;2.38;;
63316;SDS011;49822;41.468;13.560;2022-09-13T05:51:50;6.53;;;2.60;;
63316;SDS011;49822;41.468;13.560;2022-09-13T05:54:18;8.43;;;2.50;;
63316;SDS011;49822;41.468;13.560;2022-09-13T05:56:46;4.63;;;2.40;;
63316;SDS011;49822;41.468;13.560;2022-09-13T05:59:13;6.65;;;2.40;;
63316;SDS011;49822;41.468;13.560;2022-09-13T06:01:41;10.25;;;2.58;;
63316;SDS011;49822;41.468;13.560;2022-09-13T06:04:09;9.55;;;2.88;;
63316;SDS011;49822;41.468;13.560;2022-09-13T06:06:38;9.77;;;2.80;;
63316;SDS011;49822;41.468;13.560;2022-09-13T06:09:05;9.55;;;3.03;;
63316;SDS011;49822;41.468;13.560;2022-09-13T06:11:34;6.22;;;3.10;;
63316;SDS011;49822;41.468;13.560;2022-09-13T06:14:01;8.73;;;3.15;;
63316;SDS011;49822;41.468;13.560;2022-09-13T06:16:29;9.35;;;3.13;;
63316;SDS011;49822;41.468;13.560;2022-09-13T06:18:57;11.38;;;4.35;;
63316;SDS011;49822;41.468;13.560;2022-09-13T06:21:24;12.45;;;5.45;;
63316;SDS011;49822;41.468;13.560;2022-09-13T06:23:55;17.63;;;7.30;;
63316;SDS011;49822;41.468;13.560;2022-09-13T06:26:26;21.80;;;8.10;;
63316;SDS011;49822;41.468;13.560;2022-09-13T06:28:55;20.92;;;8.65;;
63316;SDS011;49822;41.468;13.560;2022-09-13T06:31:24;20.25;;;8.98;;
63316;SDS011;49822;41.468;13.560;2022-09-13T06:33:54;18.23;;;7.30;;
63316;SDS011;49822;41.468;13.560;2022-09-13T06:36:28;12.57;;;5.43;;
63316;SDS011;49822;41.468;13.560;2022-09-13T06:38:55;13.60;;;5.57;;
63316;SDS011;49822;41.468;13.560;2022-09-13T06:43:54;11.40;;;5.10;;
63316;SDS011;49822;41.468;13.560;2022-09-13T06:46:23;12.25;;;5.20;;
63316;SDS011;49822;41.468;13.560;2022-09-13T06:48:52;13.52;;;4.25;;
63316;SDS011;49822;41.468;13.560;2022-09-13T06:51:21;10.75;;;4.45;;
63316;SDS011;49822;41.468;13.560;2022-09-13T06:53:50;16.58;;;4.95;;
63316;SDS011;49822;41.468;13.560;2022-09-13T06:56:22;12.38;;;4.60;;
63316;SDS011;49822;41.468;13.560;2022-09-13T06:58:54;11.90;;;4.45;;
63316;SDS011;49822;41.468;13.560;2022-09-13T07:01:24;8.13;;;3.50;;
63316;SDS011;49822;41.468;13.560;2022-09-13T07:03:53;7.25;;;3.30;;
63316;SDS011;49822;41.468;13.560;2022-09-13T07:06:32;9.32;;;3.42;;
63316;SDS011;49822;41.468;13.560;2022-09-13T07:09:05;9.63;;;3.90;;
63316;SDS011;49822;41.468;13.560;2022-09-13T07:11:36;5.97;;;3.03;;
63316;SDS011;49822;41.468;13.560;2022-09-13T07:14:05;8.02;;;3.10;;
63316;SDS011;49822;41.468;13.560;2022-09-13T07:16:34;9.93;;;3.15;;
63316;SDS011;49822;41.468;13.560;2022-09-13T07:19:04;9.25;;;3.25;;
63316;SDS011;49822;41.468;13.560;2022-09-13T07:21:34;9.15;;;3.33;;
63316;SDS011;49822;41.468;13.560;2022-09-13T07:24:01;8.52;;;3.17;;
63316;SDS011;49822;41.468;13.560;2022-09-13T07:26:30;9.40;;;3.58;;
63316;SDS011;49822;41.468;13.560;2022-09-13T07:29:07;9.50;;;3.83;;
63316;SDS011;49822;41.468;13.560;2022-09-13T07:34:06;11.15;;;3.85;;
63316;SDS011;49822;41.468;13.560;2022-09-13T07:36:38;9.82;;;3.22;;
63316;SDS011;49822;41.468;13.560;2022-09-13T07:39:06;8.45;;;3.00;;
63316;SDS011;49822;41.468;13.560;2022-09-13T07:41:40;5.18;;;2.58;;
63316;SDS011;49822;41.468;13.560;2022-09-13T07:44:08;7.63;;;3.40;;
63316;SDS011;49822;41.468;13.560;2022-09-13T07:46:37;7.28;;;2.97;;
63316;SDS011;49822;41.468;13.560;2022-09-13T07:49:10;7.57;;;3.38;;
63316;SDS011;49822;41.468;13.560;2022-09-13T07:51:39;5.90;;;2.90;;
63316;SDS011;49822;41.468;13.560;2022-09-13T07:54:12;9.15;;;3.10;;
63316;SDS011;49822;41.468;13.560;2022-09-13T07:56:41;4.95;;;2.83;;
63316;SDS011;49822;41.468;13.560;2022-09-13T07:59:12;9.13;;;4.63;;
63316;SDS011;49822;41.468;13.560;2022-09-13T08:01:41;12.70;;;5.05;;
63316;SDS011;49822;41.468;13.560;2022-09-13T08:04:17;10.63;;;4.43;;
63316;SDS011;49822;41.468;13.560;2022-09-13T08:06:47;11.38;;;4.63;;
63316;SDS011;49822;41.468;13.560;2022-09-13T08:09:15;29.30;;;5.47;;
63316;SDS011;49822;41.468;13.560;2022-09-13T08:11:44;12.45;;;4.35;;
63316;SDS011;49822;41.468;13.560;2022-09-13T08:17:44;6.65;;;3.53;;
63316;SDS011;49822;41.468;13.560;2022-09-13T08:20:11;14.00;;;5.07;;
63316;SDS011;49822;41.468;13.560;2022-09-13T08:22:38;9.75;;;4.15;;
63316;SDS011;49822;41.468;13.560;2022-09-13T08:25:07;8.85;;;4.18;;
63316;SDS011;49822;41.468;13.560;2022-09-13T08:27:34;9.18;;;3.90;;
63316;SDS011;49822;41.468;13.560;2022-09-13T08:30:02;9.70;;;3.83;;
63316;SDS011;49822;41.468;13.560;2022-09-13T08:32:33;8.10;;;3.20;;
63316;SDS011;49822;41.468;13.560;2022-09-13T08:35:00;9.18;;;3.13;;
63316;SDS011;49822;41.468;13.560;2022-09-13T08:37:28;8.18;;;2.97;;
63316;SDS011;49822;41.468;13.560;2022-09-13T08:39:55;8.63;;;3.30;;
63316;SDS011;49822;41.468;13.560;2022-09-13T08:42:45;8.18;;;3.00;;
63316;SDS011;49822;41.468;13.560;2022-09-13T08:45:28;4.55;;;2.92;;
63316;SDS011;49822;41.468;13.560;2022-09-13T08:47:58;7.43;;;3.08;;
63316;SDS011;49822;41.468;13.560;2022-09-13T08:50:30;6.07;;;3.15;;
63316;SDS011;49822;41.468;13.560;2022-09-13T09:01:53;7.40;;;2.83;;
63316;SDS011;49822;41.468;13.560;2022-09-13T09:07:09;6.85;;;2.83;;
63316;SDS011;49822;41.468;13.560;2022-09-13T09:09:51;5.35;;;2.88;;
63316;SDS011;49822;41.468;13.560;2022-09-13T09:15:12;6.80;;;2.50;;
63316;SDS011;49822;41.468;13.560;2022-09-13T09:20:24;7.13;;;2.60;;
63316;SDS011;49822;41.468;13.560;2022-09-13T09:22:52;5.20;;;2.75;;
63316;SDS011;49822;41.468;13.560;2022-09-13T09:25:22;5.32;;;2.30;;
63316;SDS011;49822;41.468;13.560;2022-09-13T09:27:52;9.40;;;2.90;;
63316;SDS011;49822;41.468;13.560;2022-09-13T09:30:20;6.80;;;2.40;;
63316;SDS011;49822;41.468;13.560;2022-09-13T09:35:45;6.25;;;2.38;;
63316;SDS011;49822;41.468;13.560;2022-09-13T09:41:04;6.88;;;2.58;;
63316;SDS011;49822;41.468;13.560;2022-09-13T09:43:41;6.47;;;3.20;;
63316;SDS011;49822;41.468;13.560;2022-09-13T09:46:26;7.30;;;2.45;;
63316;SDS011;49822;41.468;13.560;2022-09-13T09:49:13;6.18;;;2.30;;
63316;SDS011;49822;41.468;13.560;2022-09-13T09:52:20;4.57;;;2.42;;
63316;SDS011;49822;41.468;13.560;2022-09-13T09:54:55;10.40;;;2.63;;
63316;SDS011;49822;41.468;13.560;2022-09-13T09:57:50;5.35;;;2.47;;
63316;SDS011;49822;41.468;13.560;2022-09-13T10:00:32;7.97;;;2.42;;
63316;SDS011;49822;41.468;13.560;2022-09-13T10:03:19;7.25;;;2.60;;
63316;SDS011;49822;41.468;13.560;2022-09-13T10:06:08;6.85;;;2.70;;
63316;SDS011;49822;41.468;13.560;2022-09-13T10:08:47;5.53;;;2.08;;
63316;SDS011;49822;41.468;13.560;2022-09-13T10:14:27;6.93;;;2.38;;
63316;SDS011;49822;41.468;13.560;2022-09-13T10:22:39;7.00;;;2.70;;
63316;SDS011;49822;41.468;13.560;2022-09-13T10:25:20;4.10;;;2.57;;
63316;SDS011;49822;41.468;13.560;2022-09-13T10:27:53;12.07;;;3.03;;
63316;SDS011;49822;41.468;13.560;2022-09-13T10:30:40;5.15;;;2.60;;
63316;SDS011;49822;41.468;13.560;2022-09-13T10:36:02;8.23;;;2.65;;
63316;SDS011;49822;41.468;13.560;2022-09-13T10:39:03;8.88;;;2.85;;
63316;SDS011;49822;41.468;13.560;2022-09-13T10:41:36;5.45;;;2.75;;
63316;SDS011;49822;41.468;13.560;2022-09-13T10:46:58;6.28;;;2.78;;
63316;SDS011;49822;41.468;13.560;2022-09-13T10:52:34;10.77;;;3.42;;
63316;SDS011;49822;41.468;13.560;2022-09-13T10:55:15;9.65;;;2.75;;
63316;SDS011;49822;41.468;13.560;2022-09-13T10:57:50;7.07;;;2.75;;
63316;SDS011;49822;41.468;13.560;2022-09-13T11:00:32;8.30;;;2.45;;
63316;SDS011;49822;41.468;13.560;2022-09-13T11:06:25;7.85;;;2.60;;
63316;SDS011;49822;41.468;13.560;2022-09-13T11:14:27;5.68;;;2.50;;
63316;SDS011;49822;41.468;13.560;2022-09-13T11:17:11;5.22;;;2.58;;
63316;SDS011;49822;41.468;13.560;2022-09-13T11:36:40;2.45;;;1.60;;
63316;SDS011;49822;41.468;13.560;2022-09-13T11:44:55;3.92;;;2.22;;
63316;SDS011;49822;41.468;13.560;2022-09-13T11:47:56;4.95;;;2.60;;
63316;SDS011;49822;41.468;13.560;2022-09-13T11:56:26;4.50;;;2.53;;
63316;SDS011;49822;41.468;13.560;2022-09-13T12:01:48;5.63;;;2.20;;
63316;SDS011;49822;41.468;13.560;2022-09-13T12:04:30;7.38;;;2.63;;
63316;SDS011;49822;41.468;13.560;2022-09-13T12:07:05;5.78;;;2.92;;
63316;SDS011;49822;41.468;13.560;2022-09-13T12:10:02;7.03;;;3.00;;
63316;SDS011;49822;41.468;13.560;2022-09-13T12:12:34;9.68;;;2.80;;
63316;SDS011;49822;41.468;13.560;2022-09-13T12:15:04;7.22;;;3.05;;
63316;SDS011;49822;41.468;13.560;2022-09-13T12:17:42;7.80;;;2.50;;
63316;SDS011;49822;41.468;13.560;2022-09-13T12:20:35;6.38;;;2.83;;
63316;SDS011;49822;41.468;13.560;2022-09-13T12:25:43;7.32;;;2.60;;
63316;SDS011;49822;41.468;13.560;2022-09-13T12:30:54;8.27;;;2.95;;
63316;SDS011;49822;41.468;13.560;2022-09-13T12:33:46;8.60;;;3.15;;
63316;SDS011;49822;41.468;13.560;2022-09-13T12:39:28;7.03;;;2.28;;
63316;SDS011;49822;41.468;13.560;2022-09-13T12:56:25;8.60;;;3.05;;
63316;SDS011;49822;41.468;13.560;2022-09-13T13:02:49;7.25;;;2.85;;
63316;SDS011;49822;41.468;13.560;2022-09-13T13:05:38;9.17;;;3.33;;
63316;SDS011;49822;41.468;13.560;2022-09-13T13:18:48;8.25;;;3.03;;
63316;SDS011;49822;41.468;13.560;2022-09-13T13:21:25;9.55;;;3.30;;
63316;SDS011;49822;41.468;13.560;2022-09-13T13:29:27;7.75;;;2.97;;
63316;SDS011;49822;41.468;13.560;2022-09-13T13:39:45;10.20;;;2.67;;
63316;SDS011;49822;41.468;13.560;2022-09-13T13:42:32;7.20;;;2.92;;
63316;SDS011;49822;41.468;13.560;2022-09-13T13:45:12;9.10;;;2.97;;
63316;SDS011;49822;41.468;13.560;2022-09-13T13:47:52;6.82;;;2.75;;
63316;SDS011;49822;41.468;13.560;2022-09-13T13:50:31;5.50;;;2.40;;
63316;SDS011;49822;41.468;13.560;2022-09-13T13:53:18;6.32;;;2.80;;
63316;SDS011;49822;41.468;13.560;2022-09-13T13:55:48;12.73;;;3.40;;
63316;SDS011;49822;41.468;13.560;2022-09-13T13:58:59;11.40;;;3.17;;
63316;SDS011;49822;41.468;13.560;2022-09-13T14:01:33;10.35;;;3.10;;
63316;SDS011;49822;41.468;13.560;2022-09-13T14:20:30;7.10;;;3.15;;
63316;SDS011;49822;41.468;13.560;2022-09-13T14:23:18;5.38;;;2.58;;
63316;SDS011;49822;41.468;13.560;2022-09-13T14:25:52;10.07;;;2.95;;
63316;SDS011;49822;41.468;13.560;2022-09-13T14:28:21;5.93;;;2.78;;
63316;SDS011;49822;41.468;13.560;2022-09-13T14:30:53;5.90;;;2.88;;
63316;SDS011;49822;41.468;13.560;2022-09-13T14:33:24;8.93;;;2.70;;
63316;SDS011;49822;41.468;13.560;2022-09-13T14:36:02;7.20;;;2.97;;
63316;SDS011;49822;41.468;13.560;2022-09-13T14:38:32;6.85;;;2.80;;
63316;SDS011;49822;41.468;13.560;2022-09-13T14:43:42;8.20;;;3.53;;
63316;SDS011;49822;41.468;13.560;2022-09-13T14:46:32;7.60;;;2.30;;
63316;SDS011;49822;41.468;13.560;2022-09-13T14:49:03;7.28;;;2.83;;
63316;SDS011;49822;41.468;13.560;2022-09-13T14:51:40;7.68;;;2.60;;
63316;SDS011;49822;41.468;13.560;2022-09-13T14:54:19;11.43;;;2.97;;
63316;SDS011;49822;41.468;13.560;2022-09-13T14:56:55;6.70;;;2.15;;
63316;SDS011;49822;41.468;13.560;2022-09-13T14:59:27;11.02;;;2.40;;
63316;SDS011;49822;41.468;13.560;2022-09-13T15:05:03;6.88;;;2.72;;
63316;SDS011;49822;41.468;13.560;2022-09-13T15:07:38;5.82;;;2.10;;
63316;SDS011;49822;41.468;13.560;2022-09-13T15:12:55;9.73;;;3.08;;
63316;SDS011;49822;41.468;13.560;2022-09-13T15:20:50;7.60;;;2.30;;
63316;SDS011;49822;41.468;13.560;2022-09-13T15:23:28;7.60;;;3.13;;
63316;SDS011;49822;41.468;13.560;2022-09-13T15:26:07;6.55;;;1.90;;
63316;SDS011;49822;41.468;13.560;2022-09-13T15:31:21;10.45;;;2.80;;
63316;SDS011;49822;41.468;13.560;2022-09-13T15:36:43;7.15;;;2.15;;
63316;SDS011;49822;41.468;13.560;2022-09-13T15:39:16;5.57;;;2.20;;
63316;SDS011;49822;41.468;13.560;2022-09-13T15:41:56;6.93;;;2.72;;
63316;SDS011;49822;41.468;13.560;2022-09-13T15:44:26;7.43;;;2.15;;
63316;SDS011;49822;41.468;13.560;2022-09-13T15:46:58;8.07;;;2.40;;
63316;SDS011;49822;41.468;13.560;2022-09-13T15:49:28;8.80;;;2.67;;
63316;SDS011;49822;41.468;13.560;2022-09-13T15:52:00;6.55;;;2.20;;
63316;SDS011;49822;41.468;13.560;2022-09-13T15:54:36;7.75;;;2.20;;
63316;SDS011;49822;41.468;13.560;2022-09-13T15:57:27;7.47;;;2.40;;
63316;SDS011;49822;41.468;13.560;2022-09-13T15:59:55;6.53;;;2.20;;
63316;SDS011;49822;41.468;13.560;2022-09-13T16:02:34;8.32;;;2.00;;
63316;SDS011;49822;41.468;13.560;2022-09-13T16:05:02;7.35;;;2.30;;
63316;SDS011;49822;41.468;13.560;2022-09-13T16:07:31;6.50;;;2.10;;
63316;SDS011;49822;41.468;13.560;2022-09-13T16:09:58;8.57;;;2.00;;
63316;SDS011;49822;41.468;13.560;2022-09-13T16:12:27;6.95;;;2.08;;
63316;SDS011;49822;41.468;13.560;2022-09-13T16:14:54;10.93;;;2.47;;
63316;SDS011;49822;41.468;13.560;2022-09-13T16:17:23;4.65;;;1.73;;
63316;SDS011;49822;41.468;13.560;2022-09-13T16:19:52;10.07;;;2.30;;
63316;SDS011;49822;41.468;13.560;2022-09-13T16:22:21;12.45;;;2.28;;
63316;SDS011;49822;41.468;13.560;2022-09-13T16:24:48;22.60;;;2.70;;
63316;SDS011;49822;41.468;13.560;2022-09-13T16:27:17;5.00;;;1.83;;
63316;SDS011;49822;41.468;13.560;2022-09-13T16:29:45;5.18;;;1.90;;
63316;SDS011;49822;41.468;13.560;2022-09-13T16:32:15;8.30;;;2.50;;
63316;SDS011;49822;41.468;13.560;2022-09-13T16:34:42;5.88;;;1.90;;
63316;SDS011;49822;41.468;13.560;2022-09-13T16:37:12;6.90;;;1.90;;
63316;SDS011;49822;41.468;13.560;2022-09-13T16:39:41;10.18;;;2.20;;
63316;SDS011;49822;41.468;13.560;2022-09-13T16:42:09;8.20;;;2.20;;
63316;SDS011;49822;41.468;13.560;2022-09-13T16:44:36;7.03;;;1.92;;
63316;SDS011;49822;41.468;13.560;2022-09-13T16:47:04;6.43;;;2.05;;
63316;SDS011;49822;41.468;13.560;2022-09-13T16:49:31;8.07;;;2.33;;
63316;SDS011;49822;41.468;13.560;2022-09-13T16:51:59;7.45;;;1.90;;
63316;SDS011;49822;41.468;13.560;2022-09-13T16:54:27;6.38;;;2.00;;
63316;SDS011;49822;41.468;13.560;2022-09-13T16:56:56;8.27;;;1.90;;
63316;SDS011;49822;41.468;13.560;2022-09-13T16:59:24;8.43;;;1.85;;
63316;SDS011;49822;41.468;13.560;2022-09-13T17:01:51;8.38;;;2.03;;
63316;SDS011;49822;41.468;13.560;2022-09-13T17:04:19;5.75;;;2.03;;
63316;SDS011;49822;41.468;13.560;2022-09-13T17:06:47;6.10;;;2.10;;
63316;SDS011;49822;41.468;13.560;2022-09-13T17:09:14;6.10;;;1.98;;
63316;SDS011;49822;41.468;13.560;2022-09-13T17:11:44;11.10;;;2.17;;
63316;SDS011;49822;41.468;13.560;2022-09-13T17:14:12;9.25;;;2.00;;
63316;SDS011;49822;41.468;13.560;2022-09-13T17:16:48;10.70;;;2.58;;
63316;SDS011;49822;41.468;13.560;2022-09-13T17:19:21;7.05;;;2.10;;
63316;SDS011;49822;41.468;13.560;2022-09-13T17:21:52;5.65;;;2.13;;
63316;SDS011;49822;41.468;13.560;2022-09-13T17:24:23;6.93;;;1.98;;
63316;SDS011;49822;41.468;13.560;2022-09-13T17:26:53;7.10;;;2.13;;
63316;SDS011;49822;41.468;13.560;2022-09-13T17:29:22;5.57;;;2.67;;
63316;SDS011;49822;41.468;13.560;2022-09-13T17:31:57;7.15;;;2.80;;
63316;SDS011;49822;41.468;13.560;2022-09-13T17:34:25;15.07;;;3.17;;
63316;SDS011;49822;41.468;13.560;2022-09-13T17:36:53;7.47;;;2.17;;
63316;SDS011;49822;41.468;13.560;2022-09-13T17:39:21;12.73;;;2.75;;
63316;SDS011;49822;41.468;13.560;2022-09-13T17:41:48;12.55;;;2.40;;
63316;SDS011;49822;41.468;13.560;2022-09-13T17:44:17;7.72;;;2.10;;
63316;SDS011;49822;41.468;13.560;2022-09-13T17:46:45;13.52;;;2.47;;
63316;SDS011;49822;41.468;13.560;2022-09-13T17:49:12;7.47;;;2.35;;
63316;SDS011;49822;41.468;13.560;2022-09-13T17:51:39;6.55;;;2.03;;
63316;SDS011;49822;41.468;13.560;2022-09-13T17:54:07;5.75;;;2.00;;
63316;SDS011;49822;41.468;13.560;2022-09-13T17:56:38;6.63;;;2.30;;
63316;SDS011;49822;41.468;13.560;2022-09-13T18:01:42;7.50;;;2.22;;
63316;SDS011;49822;41.468;13.560;2022-09-13T18:04:12;6.28;;;2.05;;
63316;SDS011;49822;41.468;13.560;2022-09-13T18:06:40;7.28;;;2.03;;
63316;SDS011;49822;41.468;13.560;2022-09-13T18:09:09;3.15;;;1.88;;
63316;SDS011;49822;41.468;13.560;2022-09-13T18:11:37;5.80;;;2.00;;
63316;SDS011;49822;41.468;13.560;2022-09-13T18:14:05;7.53;;;2.20;;
63316;SDS011;49822;41.468;13.560;2022-09-13T18:16:36;7.07;;;2.58;;
63316;SDS011;49822;41.468;13.560;2022-09-13T18:19:03;4.00;;;1.90;;
63316;SDS011;49822;41.468;13.560;2022-09-13T18:21:31;6.47;;;2.63;;
63316;SDS011;49822;41.468;13.560;2022-09-13T18:23:59;6.22;;;2.22;;
63316;SDS011;49822;41.468;13.560;2022-09-13T18:26:31;7.40;;;2.05;;
63316;SDS011;49822;41.468;13.560;2022-09-13T18:29:00;5.70;;;2.00;;
63316;SDS011;49822;41.468;13.560;2022-09-13T18:31:31;9.43;;;2.30;;
63316;SDS011;49822;41.468;13.560;2022-09-13T18:34:02;4.95;;;2.35;;
63316;SDS011;49822;41.468;13.560;2022-09-13T18:36:34;14.38;;;2.33;;
63316;SDS011;49822;41.468;13.560;2022-09-13T18:39:03;14.23;;;2.25;;
63316;SDS011;49822;41.468;13.560;2022-09-13T18:41:34;5.63;;;1.98;;
63316;SDS011;49822;41.468;13.560;2022-09-13T18:44:10;3.13;;;1.90;;
63316;SDS011;49822;41.468;13.560;2022-09-13T18:46:39;6.68;;;2.20;;
63316;SDS011;49822;41.468;13.560;2022-09-13T18:49:07;8.40;;;2.53;;
63316;SDS011;49822;41.468;13.560;2022-09-13T18:51:39;4.93;;;1.92;;
63316;SDS011;49822;41.468;13.560;2022-09-13T18:54:12;4.70;;;2.10;;
63316;SDS011;49822;41.468;13.560;2022-09-13T18:56:42;7.63;;;2.17;;
63316;SDS011;49822;41.468;13.560;2022-09-13T18:59:13;5.80;;;2.00;;
63316;SDS011;49822;41.468;13.560;2022-09-13T19:01:42;10.88;;;3.08;;
63316;SDS011;49822;41.468;13.560;2022-09-13T19:04:12;8.02;;;2.53;;
63316;SDS011;49822;41.468;13.560;2022-09-13T19:06:48;8.50;;;2.45;;
63316;SDS011;49822;41.468;13.560;2022-09-13T19:09:22;5.85;;;2.08;;